sensor_id;sensor_type;location;lat;lon;timestamp;P1;durP1;ratioP1;P2;durP2;ratioP2
21754;SDS011;11039;50.028;19.938;2022-10-30T00:00:04;10.90;;;8.82;;
21754;SDS011;11039;50.028;19.938;2022-10-30T00:02:30;12.00;;;8.68;;
21754;SDS011;11039;50.028;19.938;2022-10-30T00:04:56;12.60;;;9.77;;
21754;SDS011;11039;50.028;19.938;2022-10-30T00:07:22;10.95;;;8.48;;
21754;SDS011;11039;50.028;19.938;2022-10-30T00:09:48;10.25;;;8.02;;
21754;SDS011;11039;50.028;19.938;2022-10-30T00:12:14;10.77;;;8.00;;
21754;SDS011;11039;50.028;19.938;2022-10-30T00:14:40;11.48;;;8.98;;
21754;SDS011;11039;50.028;19.938;2022-10-30T00:17:06;11.00;;;8.68;;
21754;SDS011;11039;50.028;19.938;2022-10-30T00:19:32;10.63;;;8.23;;
21754;SDS011;11039;50.028;19.938;2022-10-30T00:21:58;12.18;;;8.57;;
21754;SDS011;11039;50.028;19.938;2022-10-30T00:24:26;11.48;;;8.93;;
21754;SDS011;11039;50.028;19.938;2022-10-30T00:26:53;11.75;;;8.90;;
21754;SDS011;11039;50.028;19.938;2022-10-30T00:29:19;10.07;;;8.15;;
21754;SDS011;11039;50.028;19.938;2022-10-30T00:31:47;10.45;;;8.20;;
21754;SDS011;11039;50.028;19.938;2022-10-30T00:34:13;10.70;;;8.45;;
21754;SDS011;11039;50.028;19.938;2022-10-30T00:36:39;11.32;;;8.43;;
21754;SDS011;11039;50.028;19.938;2022-10-30T00:39:06;10.98;;;8.32;;
21754;SDS011;11039;50.028;19.938;2022-10-30T00:41:32;10.75;;;8.35;;
21754;SDS011;11039;50.028;19.938;2022-10-30T00:43:58;8.95;;;7.57;;
21754;SDS011;11039;50.028;19.938;2022-10-30T00:46:31;12.00;;;8.50;;
21754;SDS011;11039;50.028;19.938;2022-10-30T00:48:59;10.90;;;8.65;;
21754;SDS011;11039;50.028;19.938;2022-10-30T00:51:27;9.85;;;8.10;;
21754;SDS011;11039;50.028;19.938;2022-10-30T00:53:55;10.20;;;7.90;;
21754;SDS011;11039;50.028;19.938;2022-10-30T00:56:23;10.18;;;8.05;;
21754;SDS011;11039;50.028;19.938;2022-10-30T00:58:51;9.70;;;8.30;;
21754;SDS011;11039;50.028;19.938;2022-10-30T01:01:19;9.48;;;7.82;;
21754;SDS011;11039;50.028;19.938;2022-10-30T01:03:46;10.30;;;7.88;;
21754;SDS011;11039;50.028;19.938;2022-10-30T01:06:14;10.57;;;8.10;;
21754;SDS011;11039;50.028;19.938;2022-10-30T01:08:40;10.85;;;8.68;;
21754;SDS011;11039;50.028;19.938;2022-10-30T01:11:07;10.63;;;7.60;;
21754;SDS011;11039;50.028;19.938;2022-10-30T01:13:33;10.07;;;7.70;;
21754;SDS011;11039;50.028;19.938;2022-10-30T01:27:25;9.40;;;7.97;;
21754;SDS011;11039;50.028;19.938;2022-10-30T01:32:13;11.93;;;7.57;;
21754;SDS011;11039;50.028;19.938;2022-10-30T01:34:52;11.57;;;8.23;;
21754;SDS011;11039;50.028;19.938;2022-10-30T01:37:37;8.98;;;7.80;;
21754;SDS011;11039;50.028;19.938;2022-10-30T01:40:07;9.75;;;8.15;;
21754;SDS011;11039;50.028;19.938;2022-10-30T01:42:45;9.68;;;7.53;;
21754;SDS011;11039;50.028;19.938;2022-10-30T01:45:16;10.80;;;8.20;;
21754;SDS011;11039;50.028;19.938;2022-10-30T01:47:54;11.60;;;8.10;;
21754;SDS011;11039;50.028;19.938;2022-10-30T01:55:28;11.35;;;8.20;;
21754;SDS011;11039;50.028;19.938;2022-10-30T01:58:01;9.88;;;7.90;;
21754;SDS011;11039;50.028;19.938;2022-10-30T02:00:31;10.13;;;7.93;;
21754;SDS011;11039;50.028;19.938;2022-10-30T02:02:57;10.50;;;8.02;;
21754;SDS011;11039;50.028;19.938;2022-10-30T02:05:31;9.45;;;7.85;;
21754;SDS011;11039;50.028;19.938;2022-10-30T02:07:58;9.98;;;7.75;;
21754;SDS011;11039;50.028;19.938;2022-10-30T02:10:24;9.23;;;7.40;;
21754;SDS011;11039;50.028;19.938;2022-10-30T02:12:50;10.02;;;7.68;;
21754;SDS011;11039;50.028;19.938;2022-10-30T02:15:16;10.50;;;7.50;;
21754;SDS011;11039;50.028;19.938;2022-10-30T02:17:42;9.27;;;7.55;;
21754;SDS011;11039;50.028;19.938;2022-10-30T02:20:16;11.13;;;7.63;;
21754;SDS011;11039;50.028;19.938;2022-10-30T02:22:42;11.88;;;8.18;;
21754;SDS011;11039;50.028;19.938;2022-10-30T02:25:08;10.20;;;7.93;;
21754;SDS011;11039;50.028;19.938;2022-10-30T02:27:34;8.77;;;7.55;;
21754;SDS011;11039;50.028;19.938;2022-10-30T02:30:00;8.65;;;7.68;;
21754;SDS011;11039;50.028;19.938;2022-10-30T02:32:26;10.73;;;7.78;;
21754;SDS011;11039;50.028;19.938;2022-10-30T02:34:52;9.38;;;7.55;;
21754;SDS011;11039;50.028;19.938;2022-10-30T02:37:18;11.02;;;8.00;;
21754;SDS011;11039;50.028;19.938;2022-10-30T02:39:44;9.45;;;7.70;;
21754;SDS011;11039;50.028;19.938;2022-10-30T02:42:10;9.13;;;7.82;;
21754;SDS011;11039;50.028;19.938;2022-10-30T02:44:36;8.77;;;7.70;;
21754;SDS011;11039;50.028;19.938;2022-10-30T02:47:02;10.38;;;8.30;;
21754;SDS011;11039;50.028;19.938;2022-10-30T02:49:28;8.90;;;7.45;;
21754;SDS011;11039;50.028;19.938;2022-10-30T02:51:54;10.13;;;8.07;;
21754;SDS011;11039;50.028;19.938;2022-10-30T02:54:20;9.93;;;8.23;;
21754;SDS011;11039;50.028;19.938;2022-10-30T02:56:46;9.20;;;7.57;;
21754;SDS011;11039;50.028;19.938;2022-10-30T02:59:12;10.02;;;7.15;;
21754;SDS011;11039;50.028;19.938;2022-10-30T03:01:38;10.10;;;7.97;;
21754;SDS011;11039;50.028;19.938;2022-10-30T03:04:04;9.52;;;8.10;;
21754;SDS011;11039;50.028;19.938;2022-10-30T03:06:30;9.13;;;8.02;;
21754;SDS011;11039;50.028;19.938;2022-10-30T03:08:56;10.52;;;7.80;;
21754;SDS011;11039;50.028;19.938;2022-10-30T03:11:22;9.55;;;7.85;;
21754;SDS011;11039;50.028;19.938;2022-10-30T03:13:48;9.07;;;7.78;;
21754;SDS011;11039;50.028;19.938;2022-10-30T03:16:16;8.35;;;7.32;;
21754;SDS011;11039;50.028;19.938;2022-10-30T03:18:42;10.15;;;7.85;;
21754;SDS011;11039;50.028;19.938;2022-10-30T03:21:09;8.88;;;7.35;;
21754;SDS011;11039;50.028;19.938;2022-10-30T03:23:35;10.18;;;8.00;;
21754;SDS011;11039;50.028;19.938;2022-10-30T03:26:01;11.68;;;8.10;;
21754;SDS011;11039;50.028;19.938;2022-10-30T03:28:28;10.80;;;8.23;;
21754;SDS011;11039;50.028;19.938;2022-10-30T03:30:59;9.07;;;7.43;;
21754;SDS011;11039;50.028;19.938;2022-10-30T03:33:25;9.90;;;7.07;;
21754;SDS011;11039;50.028;19.938;2022-10-30T03:35:51;9.60;;;7.55;;
21754;SDS011;11039;50.028;19.938;2022-10-30T03:38:17;8.88;;;7.47;;
21754;SDS011;11039;50.028;19.938;2022-10-30T03:40:43;9.82;;;7.65;;
21754;SDS011;11039;50.028;19.938;2022-10-30T03:43:09;10.52;;;7.82;;
21754;SDS011;11039;50.028;19.938;2022-10-30T03:45:35;10.35;;;7.75;;
21754;SDS011;11039;50.028;19.938;2022-10-30T03:48:02;10.85;;;7.60;;
21754;SDS011;11039;50.028;19.938;2022-10-30T03:50:29;9.40;;;7.57;;
21754;SDS011;11039;50.028;19.938;2022-10-30T03:52:55;9.07;;;7.47;;
21754;SDS011;11039;50.028;19.938;2022-10-30T03:55:22;9.38;;;7.53;;
21754;SDS011;11039;50.028;19.938;2022-10-30T03:57:48;9.00;;;7.82;;
21754;SDS011;11039;50.028;19.938;2022-10-30T04:00:14;10.82;;;8.13;;
21754;SDS011;11039;50.028;19.938;2022-10-30T04:02:45;9.73;;;7.45;;
21754;SDS011;11039;50.028;19.938;2022-10-30T04:05:11;9.73;;;7.47;;
21754;SDS011;11039;50.028;19.938;2022-10-30T04:07:37;8.63;;;7.32;;
21754;SDS011;11039;50.028;19.938;2022-10-30T04:10:03;10.25;;;7.85;;
21754;SDS011;11039;50.028;19.938;2022-10-30T04:12:29;10.68;;;7.97;;
21754;SDS011;11039;50.028;19.938;2022-10-30T04:14:55;9.82;;;7.95;;
21754;SDS011;11039;50.028;19.938;2022-10-30T04:17:21;8.55;;;7.40;;
21754;SDS011;11039;50.028;19.938;2022-10-30T04:19:47;9.90;;;7.78;;
21754;SDS011;11039;50.028;19.938;2022-10-30T04:22:13;10.43;;;8.05;;
21754;SDS011;11039;50.028;19.938;2022-10-30T04:24:39;9.68;;;7.80;;
21754;SDS011;11039;50.028;19.938;2022-10-30T04:27:05;11.43;;;7.57;;
21754;SDS011;11039;50.028;19.938;2022-10-30T04:29:31;10.15;;;8.20;;
21754;SDS011;11039;50.028;19.938;2022-10-30T04:31:57;10.05;;;7.47;;
21754;SDS011;11039;50.028;19.938;2022-10-30T04:34:23;9.23;;;7.72;;
21754;SDS011;11039;50.028;19.938;2022-10-30T04:36:49;9.63;;;7.65;;
21754;SDS011;11039;50.028;19.938;2022-10-30T04:39:15;9.13;;;7.38;;
21754;SDS011;11039;50.028;19.938;2022-10-30T04:41:41;9.55;;;7.75;;
21754;SDS011;11039;50.028;19.938;2022-10-30T04:44:07;9.75;;;7.63;;
21754;SDS011;11039;50.028;19.938;2022-10-30T04:46:33;8.82;;;7.38;;
21754;SDS011;11039;50.028;19.938;2022-10-30T04:48:59;9.30;;;7.70;;
21754;SDS011;11039;50.028;19.938;2022-10-30T04:51:25;8.48;;;7.20;;
21754;SDS011;11039;50.028;19.938;2022-10-30T04:53:51;10.00;;;7.88;;
21754;SDS011;11039;50.028;19.938;2022-10-30T04:56:18;8.88;;;7.18;;
21754;SDS011;11039;50.028;19.938;2022-10-30T04:58:44;8.77;;;7.50;;
21754;SDS011;11039;50.028;19.938;2022-10-30T05:01:10;8.27;;;6.97;;
21754;SDS011;11039;50.028;19.938;2022-10-30T05:03:36;8.98;;;7.50;;
21754;SDS011;11039;50.028;19.938;2022-10-30T05:06:03;11.15;;;7.93;;
21754;SDS011;11039;50.028;19.938;2022-10-30T05:08:30;10.52;;;7.32;;
21754;SDS011;11039;50.028;19.938;2022-10-30T05:10:56;8.93;;;7.50;;
21754;SDS011;11039;50.028;19.938;2022-10-30T05:13:22;8.75;;;7.30;;
21754;SDS011;11039;50.028;19.938;2022-10-30T05:15:48;9.55;;;7.38;;
21754;SDS011;11039;50.028;19.938;2022-10-30T05:18:14;9.27;;;7.32;;
21754;SDS011;11039;50.028;19.938;2022-10-30T05:20:40;8.02;;;6.70;;
21754;SDS011;11039;50.028;19.938;2022-10-30T05:23:07;9.20;;;7.30;;
21754;SDS011;11039;50.028;19.938;2022-10-30T05:25:33;8.38;;;7.43;;
21754;SDS011;11039;50.028;19.938;2022-10-30T05:28:00;8.75;;;7.22;;
21754;SDS011;11039;50.028;19.938;2022-10-30T05:30:27;9.18;;;7.68;;
21754;SDS011;11039;50.028;19.938;2022-10-30T05:32:58;9.27;;;7.43;;
21754;SDS011;11039;50.028;19.938;2022-10-30T05:35:24;8.45;;;6.72;;
21754;SDS011;11039;50.028;19.938;2022-10-30T05:37:50;9.10;;;7.53;;
21754;SDS011;11039;50.028;19.938;2022-10-30T05:40:16;8.75;;;7.35;;
21754;SDS011;11039;50.028;19.938;2022-10-30T05:42:46;8.57;;;6.88;;
21754;SDS011;11039;50.028;19.938;2022-10-30T05:45:12;10.25;;;7.68;;
21754;SDS011;11039;50.028;19.938;2022-10-30T05:47:38;9.88;;;7.72;;
21754;SDS011;11039;50.028;19.938;2022-10-30T05:50:05;8.50;;;7.10;;
21754;SDS011;11039;50.028;19.938;2022-10-30T05:52:31;9.10;;;7.13;;
21754;SDS011;11039;50.028;19.938;2022-10-30T05:54:57;10.18;;;7.28;;
21754;SDS011;11039;50.028;19.938;2022-10-30T05:57:23;9.15;;;7.05;;
21754;SDS011;11039;50.028;19.938;2022-10-30T05:59:49;8.60;;;7.10;;
21754;SDS011;11039;50.028;19.938;2022-10-30T06:02:15;9.02;;;7.45;;
21754;SDS011;11039;50.028;19.938;2022-10-30T06:04:41;8.73;;;6.97;;
21754;SDS011;11039;50.028;19.938;2022-10-30T06:07:08;8.00;;;6.90;;
21754;SDS011;11039;50.028;19.938;2022-10-30T06:09:34;8.93;;;6.80;;
21754;SDS011;11039;50.028;19.938;2022-10-30T06:12:01;9.55;;;7.20;;
21754;SDS011;11039;50.028;19.938;2022-10-30T06:14:27;8.27;;;7.05;;
21754;SDS011;11039;50.028;19.938;2022-10-30T06:16:53;8.70;;;6.90;;
21754;SDS011;11039;50.028;19.938;2022-10-30T06:19:19;8.80;;;7.30;;
21754;SDS011;11039;50.028;19.938;2022-10-30T06:21:45;8.13;;;6.93;;
21754;SDS011;11039;50.028;19.938;2022-10-30T06:24:11;8.05;;;6.43;;
21754;SDS011;11039;50.028;19.938;2022-10-30T06:26:37;8.50;;;6.32;;
21754;SDS011;11039;50.028;19.938;2022-10-30T06:29:03;8.80;;;6.90;;
21754;SDS011;11039;50.028;19.938;2022-10-30T06:31:29;6.90;;;6.20;;
21754;SDS011;11039;50.028;19.938;2022-10-30T06:33:55;9.25;;;6.60;;
21754;SDS011;11039;50.028;19.938;2022-10-30T06:36:21;8.27;;;6.65;;
21754;SDS011;11039;50.028;19.938;2022-10-30T06:38:47;7.28;;;6.28;;
21754;SDS011;11039;50.028;19.938;2022-10-30T06:41:13;8.35;;;6.25;;
21754;SDS011;11039;50.028;19.938;2022-10-30T06:43:39;8.18;;;6.55;;
21754;SDS011;11039;50.028;19.938;2022-10-30T06:46:05;7.60;;;6.47;;
21754;SDS011;11039;50.028;19.938;2022-10-30T06:48:31;6.97;;;5.90;;
21754;SDS011;11039;50.028;19.938;2022-10-30T06:50:58;7.22;;;6.32;;
21754;SDS011;11039;50.028;19.938;2022-10-30T06:53:27;7.60;;;6.55;;
21754;SDS011;11039;50.028;19.938;2022-10-30T06:55:59;7.78;;;6.22;;
21754;SDS011;11039;50.028;19.938;2022-10-30T06:58:26;8.15;;;6.40;;
21754;SDS011;11039;50.028;19.938;2022-10-30T07:00:52;8.77;;;6.93;;
21754;SDS011;11039;50.028;19.938;2022-10-30T07:03:19;7.30;;;5.90;;
21754;SDS011;11039;50.028;19.938;2022-10-30T07:05:45;7.25;;;6.10;;
21754;SDS011;11039;50.028;19.938;2022-10-30T07:08:11;7.95;;;6.30;;
21754;SDS011;11039;50.028;19.938;2022-10-30T07:10:37;7.65;;;6.40;;
21754;SDS011;11039;50.028;19.938;2022-10-30T07:13:03;6.95;;;6.03;;
21754;SDS011;11039;50.028;19.938;2022-10-30T07:15:29;7.85;;;5.55;;
21754;SDS011;11039;50.028;19.938;2022-10-30T07:17:56;8.25;;;6.28;;
21754;SDS011;11039;50.028;19.938;2022-10-30T07:20:23;9.00;;;6.20;;
21754;SDS011;11039;50.028;19.938;2022-10-30T07:22:49;10.57;;;6.40;;
21754;SDS011;11039;50.028;19.938;2022-10-30T07:25:15;7.57;;;5.97;;
21754;SDS011;11039;50.028;19.938;2022-10-30T07:27:42;9.57;;;6.63;;
21754;SDS011;11039;50.028;19.938;2022-10-30T07:30:09;9.63;;;6.28;;
21754;SDS011;11039;50.028;19.938;2022-10-30T07:32:35;7.50;;;6.38;;
21754;SDS011;11039;50.028;19.938;2022-10-30T07:35:01;6.93;;;6.07;;
21754;SDS011;11039;50.028;19.938;2022-10-30T07:37:28;7.25;;;6.28;;
21754;SDS011;11039;50.028;19.938;2022-10-30T07:39:54;8.18;;;5.97;;
21754;SDS011;11039;50.028;19.938;2022-10-30T07:42:20;7.13;;;5.55;;
21754;SDS011;11039;50.028;19.938;2022-10-30T07:44:46;6.45;;;5.75;;
21754;SDS011;11039;50.028;19.938;2022-10-30T07:47:12;6.93;;;5.85;;
21754;SDS011;11039;50.028;19.938;2022-10-30T07:49:38;9.10;;;5.90;;
21754;SDS011;11039;50.028;19.938;2022-10-30T07:52:04;6.50;;;5.70;;
21754;SDS011;11039;50.028;19.938;2022-10-30T07:54:30;7.40;;;5.53;;
21754;SDS011;11039;50.028;19.938;2022-10-30T07:56:56;7.10;;;5.97;;
21754;SDS011;11039;50.028;19.938;2022-10-30T07:59:23;6.75;;;5.68;;
21754;SDS011;11039;50.028;19.938;2022-10-30T08:01:49;7.50;;;5.55;;
21754;SDS011;11039;50.028;19.938;2022-10-30T08:04:15;8.25;;;6.45;;
21754;SDS011;11039;50.028;19.938;2022-10-30T08:06:41;6.95;;;5.60;;
21754;SDS011;11039;50.028;19.938;2022-10-30T08:09:07;6.53;;;5.40;;
21754;SDS011;11039;50.028;19.938;2022-10-30T08:11:33;6.15;;;5.55;;
21754;SDS011;11039;50.028;19.938;2022-10-30T08:13:59;7.38;;;5.75;;
21754;SDS011;11039;50.028;19.938;2022-10-30T08:16:26;8.95;;;6.22;;
21754;SDS011;11039;50.028;19.938;2022-10-30T08:18:52;7.72;;;5.03;;
21754;SDS011;11039;50.028;19.938;2022-10-30T08:21:18;8.02;;;6.00;;
21754;SDS011;11039;50.028;19.938;2022-10-30T08:23:44;9.10;;;5.65;;
21754;SDS011;11039;50.028;19.938;2022-10-30T08:26:10;8.07;;;5.57;;
21754;SDS011;11039;50.028;19.938;2022-10-30T08:28:36;8.63;;;5.90;;
21754;SDS011;11039;50.028;19.938;2022-10-30T08:31:02;7.32;;;5.72;;
21754;SDS011;11039;50.028;19.938;2022-10-30T08:33:29;7.47;;;5.63;;
21754;SDS011;11039;50.028;19.938;2022-10-30T08:35:56;7.05;;;5.70;;
21754;SDS011;11039;50.028;19.938;2022-10-30T08:38:23;6.78;;;5.47;;
21754;SDS011;11039;50.028;19.938;2022-10-30T08:40:49;8.85;;;5.90;;
21754;SDS011;11039;50.028;19.938;2022-10-30T08:43:15;6.68;;;5.57;;
21754;SDS011;11039;50.028;19.938;2022-10-30T08:45:41;7.00;;;5.43;;
21754;SDS011;11039;50.028;19.938;2022-10-30T08:48:11;6.32;;;5.70;;
21754;SDS011;11039;50.028;19.938;2022-10-30T08:50:37;7.70;;;5.53;;
21754;SDS011;11039;50.028;19.938;2022-10-30T08:53:04;6.45;;;5.20;;
21754;SDS011;11039;50.028;19.938;2022-10-30T08:55:30;8.55;;;5.57;;
21754;SDS011;11039;50.028;19.938;2022-10-30T08:57:57;9.38;;;5.80;;
21754;SDS011;11039;50.028;19.938;2022-10-30T09:00:23;8.13;;;6.10;;
21754;SDS011;11039;50.028;19.938;2022-10-30T09:02:50;6.38;;;5.30;;
21754;SDS011;11039;50.028;19.938;2022-10-30T09:05:16;6.40;;;5.53;;
21754;SDS011;11039;50.028;19.938;2022-10-30T09:07:42;8.23;;;5.63;;
21754;SDS011;11039;50.028;19.938;2022-10-30T09:10:08;10.85;;;6.03;;
21754;SDS011;11039;50.028;19.938;2022-10-30T09:12:34;11.20;;;7.97;;
21754;SDS011;11039;50.028;19.938;2022-10-30T09:15:00;12.15;;;8.05;;
21754;SDS011;11039;50.028;19.938;2022-10-30T09:17:26;12.45;;;8.68;;
21754;SDS011;11039;50.028;19.938;2022-10-30T09:19:52;11.63;;;8.32;;
21754;SDS011;11039;50.028;19.938;2022-10-30T09:22:18;14.05;;;8.80;;
21754;SDS011;11039;50.028;19.938;2022-10-30T09:24:44;11.43;;;8.57;;
21754;SDS011;11039;50.028;19.938;2022-10-30T09:27:10;12.80;;;9.73;;
21754;SDS011;11039;50.028;19.938;2022-10-30T09:29:36;9.25;;;8.30;;
21754;SDS011;11039;50.028;19.938;2022-10-30T09:32:04;12.60;;;9.18;;
21754;SDS011;11039;50.028;19.938;2022-10-30T09:34:34;12.07;;;8.98;;
21754;SDS011;11039;50.028;19.938;2022-10-30T09:37:00;14.35;;;9.43;;
21754;SDS011;11039;50.028;19.938;2022-10-30T09:39:26;13.73;;;8.65;;
21754;SDS011;11039;50.028;19.938;2022-10-30T09:52:07;12.18;;;8.43;;
21754;SDS011;11039;50.028;19.938;2022-10-30T09:57:30;11.32;;;8.23;;
21754;SDS011;11039;50.028;19.938;2022-10-30T10:05:16;15.43;;;7.88;;
21754;SDS011;11039;50.028;19.938;2022-10-30T10:07:46;13.40;;;8.10;;
21754;SDS011;11039;50.028;19.938;2022-10-30T10:10:36;11.10;;;7.90;;
21754;SDS011;11039;50.028;19.938;2022-10-30T10:12:58;11.52;;;7.78;;
21754;SDS011;11039;50.028;19.938;2022-10-30T10:17:57;11.65;;;7.30;;
21754;SDS011;11039;50.028;19.938;2022-10-30T10:20:31;11.20;;;7.60;;
21754;SDS011;11039;50.028;19.938;2022-10-30T10:22:58;10.00;;;6.82;;
21754;SDS011;11039;50.028;19.938;2022-10-30T10:25:25;12.13;;;6.78;;
21754;SDS011;11039;50.028;19.938;2022-10-30T10:27:55;11.52;;;7.20;;
21754;SDS011;11039;50.028;19.938;2022-10-30T10:30:22;12.63;;;6.43;;
21754;SDS011;11039;50.028;19.938;2022-10-30T10:51:50;10.95;;;6.25;;
21754;SDS011;11039;50.028;19.938;2022-10-30T10:54:22;8.98;;;5.85;;
21754;SDS011;11039;50.028;19.938;2022-10-30T10:56:50;12.18;;;6.05;;
21754;SDS011;11039;50.028;19.938;2022-10-30T10:59:26;11.43;;;6.65;;
21754;SDS011;11039;50.028;19.938;2022-10-30T11:04:30;9.93;;;6.20;;
21754;SDS011;11039;50.028;19.938;2022-10-30T11:06:57;10.10;;;6.15;;
21754;SDS011;11039;50.028;19.938;2022-10-30T11:09:23;11.20;;;6.28;;
21754;SDS011;11039;50.028;19.938;2022-10-30T11:11:53;10.95;;;6.55;;
21754;SDS011;11039;50.028;19.938;2022-10-30T11:14:21;10.15;;;5.88;;
21754;SDS011;11039;50.028;19.938;2022-10-30T11:19:13;12.68;;;6.40;;
21754;SDS011;11039;50.028;19.938;2022-10-30T11:21:47;10.20;;;6.30;;
21754;SDS011;11039;50.028;19.938;2022-10-30T11:24:30;9.60;;;6.38;;
21754;SDS011;11039;50.028;19.938;2022-10-30T11:26:58;14.43;;;7.18;;
21754;SDS011;11039;50.028;19.938;2022-10-30T11:29:25;14.38;;;6.80;;
21754;SDS011;11039;50.028;19.938;2022-10-30T11:32:00;11.85;;;6.32;;
21754;SDS011;11039;50.028;19.938;2022-10-30T11:34:28;13.90;;;6.68;;
21754;SDS011;11039;50.028;19.938;2022-10-30T11:36:55;9.00;;;5.65;;
21754;SDS011;11039;50.028;19.938;2022-10-30T11:39:22;10.52;;;6.82;;
21754;SDS011;11039;50.028;19.938;2022-10-30T11:42:34;13.27;;;6.60;;
21754;SDS011;11039;50.028;19.938;2022-10-30T11:44:42;11.73;;;6.72;;
21754;SDS011;11039;50.028;19.938;2022-10-30T11:47:09;12.05;;;6.93;;
21754;SDS011;11039;50.028;19.938;2022-10-30T11:52:03;11.65;;;6.82;;
21754;SDS011;11039;50.028;19.938;2022-10-30T11:54:33;12.00;;;6.70;;
21754;SDS011;11039;50.028;19.938;2022-10-30T11:56:59;13.00;;;6.88;;
21754;SDS011;11039;50.028;19.938;2022-10-30T11:59:25;10.98;;;7.30;;
21754;SDS011;11039;50.028;19.938;2022-10-30T12:04:25;12.63;;;7.18;;
21754;SDS011;11039;50.028;19.938;2022-10-30T12:09:40;10.70;;;6.68;;
21754;SDS011;11039;50.028;19.938;2022-10-30T12:14:48;12.10;;;7.22;;
21754;SDS011;11039;50.028;19.938;2022-10-30T12:17:15;14.30;;;6.88;;
21754;SDS011;11039;50.028;19.938;2022-10-30T12:19:49;11.82;;;6.88;;
21754;SDS011;11039;50.028;19.938;2022-10-30T12:22:49;11.00;;;6.85;;
21754;SDS011;11039;50.028;19.938;2022-10-30T12:27:49;11.77;;;6.97;;
21754;SDS011;11039;50.028;19.938;2022-10-30T12:30:19;11.75;;;7.00;;
21754;SDS011;11039;50.028;19.938;2022-10-30T12:35:23;13.13;;;6.97;;
21754;SDS011;11039;50.028;19.938;2022-10-30T12:37:51;12.75;;;6.95;;
21754;SDS011;11039;50.028;19.938;2022-10-30T12:42:48;13.90;;;6.75;;
21754;SDS011;11039;50.028;19.938;2022-10-30T12:45:17;13.07;;;6.82;;
21754;SDS011;11039;50.028;19.938;2022-10-30T12:50:18;12.20;;;7.05;;
21754;SDS011;11039;50.028;19.938;2022-10-30T12:55:16;11.55;;;6.88;;
21754;SDS011;11039;50.028;19.938;2022-10-30T13:00:29;10.82;;;6.78;;
21754;SDS011;11039;50.028;19.938;2022-10-30T13:03:18;14.30;;;7.00;;
21754;SDS011;11039;50.028;19.938;2022-10-30T13:05:54;13.82;;;6.90;;
21754;SDS011;11039;50.028;19.938;2022-10-30T13:08:29;10.85;;;7.10;;
21754;SDS011;11039;50.028;19.938;2022-10-30T13:13:44;11.07;;;7.15;;
21754;SDS011;11039;50.028;19.938;2022-10-30T13:16:13;11.82;;;7.10;;
21754;SDS011;11039;50.028;19.938;2022-10-30T13:18:40;17.70;;;6.72;;
21754;SDS011;11039;50.028;19.938;2022-10-30T13:26:07;16.42;;;6.82;;
21754;SDS011;11039;50.028;19.938;2022-10-30T13:28:42;12.27;;;6.57;;
21754;SDS011;11039;50.028;19.938;2022-10-30T13:33:41;10.55;;;6.25;;
21754;SDS011;11039;50.028;19.938;2022-10-30T13:36:19;11.82;;;6.32;;
21754;SDS011;11039;50.028;19.938;2022-10-30T13:51:34;10.02;;;6.00;;
21754;SDS011;11039;50.028;19.938;2022-10-30T13:56:28;11.55;;;5.95;;
21754;SDS011;11039;50.028;19.938;2022-10-30T14:01:38;12.80;;;6.00;;
21754;SDS011;11039;50.028;19.938;2022-10-30T14:07:03;15.80;;;6.35;;
21754;SDS011;11039;50.028;19.938;2022-10-30T14:11:54;15.93;;;6.57;;
21754;SDS011;11039;50.028;19.938;2022-10-30T14:14:30;12.77;;;6.10;;
21754;SDS011;11039;50.028;19.938;2022-10-30T14:17:06;15.88;;;6.78;;
21754;SDS011;11039;50.028;19.938;2022-10-30T14:19:46;10.07;;;6.00;;
21754;SDS011;11039;50.028;19.938;2022-10-30T14:22:22;12.52;;;5.85;;
21754;SDS011;11039;50.028;19.938;2022-10-30T14:24:49;13.60;;;6.47;;
21754;SDS011;11039;50.028;19.938;2022-10-30T14:27:28;13.65;;;6.20;;
21754;SDS011;11039;50.028;19.938;2022-10-30T14:29:55;12.50;;;6.28;;
21754;SDS011;11039;50.028;19.938;2022-10-30T14:37:13;16.30;;;6.47;;
21754;SDS011;11039;50.028;19.938;2022-10-30T14:39:41;11.00;;;5.88;;
21754;SDS011;11039;50.028;19.938;2022-10-30T14:44:48;12.15;;;6.13;;
21754;SDS011;11039;50.028;19.938;2022-10-30T14:49:46;12.35;;;6.00;;
21754;SDS011;11039;50.028;19.938;2022-10-30T14:55:04;14.15;;;6.45;;
21754;SDS011;11039;50.028;19.938;2022-10-30T14:57:46;10.38;;;5.78;;
21754;SDS011;11039;50.028;19.938;2022-10-30T15:08:05;12.95;;;5.97;;
21754;SDS011;11039;50.028;19.938;2022-10-30T15:10:36;12.07;;;5.53;;
21754;SDS011;11039;50.028;19.938;2022-10-30T15:15:30;11.00;;;5.80;;
21754;SDS011;11039;50.028;19.938;2022-10-30T15:17:57;11.27;;;6.13;;
21754;SDS011;11039;50.028;19.938;2022-10-30T15:20:25;11.25;;;5.60;;
21754;SDS011;11039;50.028;19.938;2022-10-30T15:22:53;13.68;;;5.85;;
21754;SDS011;11039;50.028;19.938;2022-10-30T15:25:21;14.55;;;6.40;;
21754;SDS011;11039;50.028;19.938;2022-10-30T15:27:51;12.50;;;5.50;;
21754;SDS011;11039;50.028;19.938;2022-10-30T15:30:22;8.88;;;5.57;;
21754;SDS011;11039;50.028;19.938;2022-10-30T15:32:48;12.73;;;5.55;;
21754;SDS011;11039;50.028;19.938;2022-10-30T15:37:59;11.27;;;5.72;;
21754;SDS011;11039;50.028;19.938;2022-10-30T15:40:25;11.32;;;5.40;;
21754;SDS011;11039;50.028;19.938;2022-10-30T15:42:51;11.65;;;5.20;;
21754;SDS011;11039;50.028;19.938;2022-10-30T15:45:18;8.43;;;5.40;;
21754;SDS011;11039;50.028;19.938;2022-10-30T15:47:45;13.88;;;5.82;;
21754;SDS011;11039;50.028;19.938;2022-10-30T15:50:12;10.18;;;5.35;;
21754;SDS011;11039;50.028;19.938;2022-10-30T15:52:38;13.45;;;5.30;;
21754;SDS011;11039;50.028;19.938;2022-10-30T15:55:07;10.63;;;5.63;;
21754;SDS011;11039;50.028;19.938;2022-10-30T15:57:40;15.55;;;5.47;;
21754;SDS011;11039;50.028;19.938;2022-10-30T16:00:17;13.65;;;6.10;;
21754;SDS011;11039;50.028;19.938;2022-10-30T16:02:47;13.90;;;6.20;;
21754;SDS011;11039;50.028;19.938;2022-10-30T16:05:22;12.20;;;5.88;;
21754;SDS011;11039;50.028;19.938;2022-10-30T16:07:48;12.73;;;5.47;;
21754;SDS011;11039;50.028;19.938;2022-10-30T16:10:16;11.90;;;6.07;;
21754;SDS011;11039;50.028;19.938;2022-10-30T16:12:42;12.77;;;5.38;;
21754;SDS011;11039;50.028;19.938;2022-10-30T16:15:19;12.63;;;5.65;;
21754;SDS011;11039;50.028;19.938;2022-10-30T16:17:48;15.95;;;5.63;;
21754;SDS011;11039;50.028;19.938;2022-10-30T16:20:14;10.50;;;5.35;;
21754;SDS011;11039;50.028;19.938;2022-10-30T16:22:42;9.63;;;5.80;;
21754;SDS011;11039;50.028;19.938;2022-10-30T16:25:08;13.98;;;5.90;;
21754;SDS011;11039;50.028;19.938;2022-10-30T16:27:43;15.32;;;5.97;;
21754;SDS011;11039;50.028;19.938;2022-10-30T16:30:13;14.73;;;6.15;;
21754;SDS011;11039;50.028;19.938;2022-10-30T16:32:39;13.15;;;5.97;;
21754;SDS011;11039;50.028;19.938;2022-10-30T16:35:06;12.65;;;6.10;;
21754;SDS011;11039;50.028;19.938;2022-10-30T16:37:33;14.07;;;5.78;;
21754;SDS011;11039;50.028;19.938;2022-10-30T16:40:10;12.60;;;5.82;;
21754;SDS011;11039;50.028;19.938;2022-10-30T16:42:37;14.73;;;6.00;;
21754;SDS011;11039;50.028;19.938;2022-10-30T16:45:46;17.10;;;6.32;;
21754;SDS011;11039;50.028;19.938;2022-10-30T16:48:05;12.73;;;5.55;;
21754;SDS011;11039;50.028;19.938;2022-10-30T16:50:33;11.02;;;6.20;;
21754;SDS011;11039;50.028;19.938;2022-10-30T16:53:33;15.50;;;7.15;;
21754;SDS011;11039;50.028;19.938;2022-10-30T16:55:53;23.95;;;8.07;;
21754;SDS011;11039;50.028;19.938;2022-10-30T16:58:19;16.30;;;7.93;;
21754;SDS011;11039;50.028;19.938;2022-10-30T17:00:52;13.88;;;6.82;;